Time;durP1;ratioP1;P1;durP2;ratioP2;P2;SDS_P1;SDS_P2;PMS_P1;PMS_P2;Temp;Humidity;BMP_temperature;BMP_pressure;BME280_temperature;BME280_humidity;BME280_pressure;Samples;Min_cycle;Max_cycle;Signal;HPM_P1;HPM_P2
2024/01/16 00:00:58;;;;;;;10.95;7.72;;;6.30;74.20;;;;;;6093885;23;20033;-77
2024/01/16 00:03:24;;;;;;;11.02;8.00;;;6.30;74.80;;;;;;6093237;23;20390;-78
2024/01/16 00:05:50;;;;;;;11.18;8.65;;;6.30;74.80;;;;;;6091262;23;20086;-78
2024/01/16 00:08:16;;;;;;;10.90;8.07;;;6.30;75.20;;;;;;6093470;23;20568;-78
2024/01/16 00:10:42;;;;;;;10.30;7.60;;;6.30;74.50;;;;;;6092116;23;20019;-78
2024/01/16 00:13:08;;;;;;;11.07;8.10;;;6.30;74.40;;;;;;6092820;23;20532;-78
2024/01/16 00:15:34;;;;;;;11.63;7.93;;;6.30;74.80;;;;;;6093548;23;20010;-78
2024/01/16 00:18:00;;;;;;;12.20;8.32;;;6.30;75.10;;;;;;6092848;23;20026;-78
2024/01/16 00:20:26;;;;;;;10.77;8.18;;;6.30;75.20;;;;;;6093293;23;20023;-78
2024/01/16 00:22:52;;;;;;;10.27;7.95;;;6.30;75.60;;;;;;6092864;23;20022;-78
2024/01/16 00:25:19;;;;;;;9.85;7.38;;;6.30;75.30;;;;;;6093256;23;20022;-78
2024/01/16 00:27:46;;;;;;;10.85;7.25;;;6.30;75.30;;;;;;6094028;23;20040;-78
2024/01/16 00:30:13;;;;;;;10.13;7.18;;;6.30;74.70;;;;;;6093309;23;20027;-78
2024/01/16 00:32:39;;;;;;;11.02;7.32;;;6.20;75.30;;;;;;6093214;23;20025;-78
2024/01/16 00:35:05;;;;;;;9.75;7.22;;;6.30;75.30;;;;;;6092992;23;20382;-77
2024/01/16 00:37:31;;;;;;;9.13;7.07;;;6.30;74.60;;;;;;6067278;23;20101;-77
2024/01/16 00:39:57;;;;;;;8.95;7.07;;;6.30;75.10;;;;;;6093843;23;20014;-78
2024/01/16 00:42:23;;;;;;;10.05;6.85;;;6.30;75.10;;;;;;6067562;23;20655;-77
2024/01/16 00:44:49;;;;;;;8.88;6.75;;;6.20;75.10;;;;;;6093023;23;20026;-77
2024/01/16 00:47:15;;;;;;;10.82;7.25;;;6.30;74.60;;;;;;6092438;23;20030;-77
2024/01/16 00:49:41;;;;;;;8.95;7.13;;;6.30;74.80;;;;;;6093218;23;20014;-77
2024/01/16 00:52:07;;;;;;;9.15;6.82;;;6.30;75.00;;;;;;6092953;23;20021;-77
2024/01/16 00:54:33;;;;;;;8.23;6.57;;;6.30;73.60;;;;;;6093555;23;20636;-77
2024/01/16 00:56:59;;;;;;;8.85;6.82;;;6.20;73.20;;;;;;6067208;23;20023;-77
2024/01/16 00:59:26;;;;;;;7.03;5.80;;;6.30;73.60;;;;;;6092564;23;20029;-77
2024/01/16 01:01:52;;;;;;;9.35;6.00;;;6.20;73.70;;;;;;6092634;23;20023;-77
2024/01/16 01:04:18;;;;;;;9.43;7.35;;;6.20;73.50;;;;;;6092832;23;20042;-78
2024/01/16 01:06:44;;;;;;;11.20;7.38;;;6.20;73.30;;;;;;6093257;23;20089;-77
2024/01/16 01:09:12;;;;;;;8.57;6.38;;;6.20;73.30;;;;;;6090896;23;20040;-76
2024/01/16 01:11:39;;;;;;;10.23;6.53;;;6.30;74.20;;;;;;6092827;23;20362;-77
2024/01/16 01:14:05;;;;;;;8.82;6.97;;;6.30;74.20;;;;;;6092639;23;20109;-77
2024/01/16 01:16:31;;;;;;;9.35;7.30;;;6.20;75.20;;;;;;6092906;23;20454;-76
2024/01/16 01:18:57;;;;;;;9.25;7.05;;;6.30;74.80;;;;;;6091316;23;20006;-76
2024/01/16 01:21:24;;;;;;;9.35;7.10;;;6.20;74.70;;;;;;6092665;23;20023;-78
2024/01/16 01:23:50;;;;;;;10.25;6.90;;;6.20;75.50;;;;;;6092927;23;20057;-76
2024/01/16 01:26:19;;;;;;;8.75;6.68;;;6.20;75.20;;;;;;6092711;23;20030;-77
2024/01/16 01:28:46;;;;;;;10.05;6.88;;;6.30;75.50;;;;;;6092439;23;20041;-76
2024/01/16 01:31:12;;;;;;;10.18;6.28;;;6.20;75.00;;;;;;6092782;23;20105;-77
2024/01/16 01:33:40;;;;;;;8.15;6.60;;;6.30;74.80;;;;;;6093207;23;20021;-79
2024/01/16 01:36:06;;;;;;;9.52;6.78;;;6.20;74.40;;;;;;6092712;23;20014;-79
2024/01/16 01:38:32;;;;;;;8.00;6.28;;;6.20;74.30;;;;;;6092206;23;20611;-78
2024/01/16 01:40:58;;;;;;;9.93;7.15;;;6.20;74.40;;;;;;6067039;23;20347;-77
2024/01/16 01:43:25;;;;;;;9.38;6.57;;;6.20;74.60;;;;;;6092613;23;20046;-78
2024/01/16 01:46:15;;;;;;;12.15;7.57;;;6.20;74.90;;;;;;6092899;23;20010;-78
2024/01/16 01:48:42;;;;;;;9.88;6.43;;;6.20;74.20;;;;;;6092634;23;20038;-77
2024/01/16 01:51:13;;;;;;;9.73;6.88;;;6.20;74.30;;;;;;6090785;23;20454;-78
2024/01/16 01:53:41;;;;;;;10.50;6.78;;;6.20;73.70;;;;;;6092852;23;20030;-78
2024/01/16 01:56:11;;;;;;;10.20;6.63;;;6.20;74.00;;;;;;6092694;23;20574;-78
2024/01/16 01:58:38;;;;;;;10.38;7.00;;;6.20;74.50;;;;;;6092370;23;20021;-78
2024/01/16 02:01:07;;;;;;;9.70;6.60;;;6.20;73.80;;;;;;6066384;23;20073;-78
2024/01/16 02:03:41;;;;;;;8.75;6.13;;;6.20;73.30;;;;;;6093053;23;20459;-79
2024/01/16 02:06:07;;;;;;;9.07;6.43;;;6.20;73.60;;;;;;6067090;23;20026;-76
2024/01/16 02:08:33;;;;;;;8.57;6.47;;;6.20;73.60;;;;;;6092616;23;20030;-77
2024/01/16 02:10:59;;;;;;;9.00;6.32;;;6.20;73.30;;;;;;6091457;23;20681;-78
2024/01/16 02:13:25;;;;;;;10.00;6.68;;;6.20;73.60;;;;;;6067008;23;20051;-77
2024/01/16 02:15:51;;;;;;;9.68;6.65;;;6.20;73.90;;;;;;6093239;23;20010;-76
2024/01/16 02:18:18;;;;;;;13.95;6.43;;;6.20;74.20;;;;;;6092444;23;20026;-77
2024/01/16 02:20:45;;;;;;;10.52;6.10;;;6.20;74.80;;;;;;6090664;23;20022;-77
2024/01/16 02:23:14;;;;;;;9.05;6.25;;;6.20;75.70;;;;;;6092550;23;20058;-76
2024/01/16 02:25:43;;;;;;;11.45;6.53;;;6.20;74.50;;;;;;6090641;23;20522;-76
2024/01/16 02:28:10;;;;;;;10.50;6.75;;;6.20;74.80;;;;;;6066917;23;20383;-76
2024/01/16 02:30:36;;;;;;;10.55;6.10;;;6.20;75.50;;;;;;6067191;23;20054;-77
2024/01/16 02:33:03;;;;;;;8.65;6.45;;;6.20;75.00;;;;;;6091058;23;20403;-78
2024/01/16 02:35:29;;;;;;;8.57;6.10;;;6.20;75.40;;;;;;6090916;23;20085;-78
2024/01/16 02:37:55;;;;;;;8.75;6.30;;;6.20;74.50;;;;;;6067703;23;20403;-77
2024/01/16 02:40:21;;;;;;;8.18;6.15;;;6.20;73.40;;;;;;6092695;23;20046;-76
2024/01/16 02:42:47;;;;;;;7.22;5.80;;;6.20;73.90;;;;;;6094607;23;20462;-78
2024/01/16 02:45:13;;;;;;;10.05;6.38;;;6.20;74.60;;;;;;6068489;23;20073;-77
2024/01/16 02:47:39;;;;;;;10.35;6.47;;;6.20;74.20;;;;;;6092167;23;20042;-78
2024/01/16 02:50:06;;;;;;;9.57;5.85;;;6.20;74.40;;;;;;6068551;23;20018;-79
2024/01/16 02:52:32;;;;;;;9.40;6.47;;;6.20;73.30;;;;;;6093608;23;20044;-78
2024/01/16 02:54:58;;;;;;;8.18;6.28;;;6.20;73.80;;;;;;6092679;23;20010;-78
2024/01/16 02:57:24;;;;;;;9.10;6.40;;;6.20;74.50;;;;;;6092558;23;20025;-78
2024/01/16 02:59:50;;;;;;;8.35;6.35;;;6.20;74.10;;;;;;6068578;23;20382;-78
2024/01/16 03:02:16;;;;;;;8.68;6.32;;;6.20;74.50;;;;;;6091330;23;20099;-78
2024/01/16 03:04:42;;;;;;;8.05;6.22;;;6.20;73.80;;;;;;6093795;23;20489;-78
2024/01/16 03:07:08;;;;;;;9.23;6.28;;;6.20;73.60;;;;;;6068242;23;20011;-78
2024/01/16 03:09:34;;;;;;;7.85;5.70;;;6.20;73.70;;;;;;6093068;23;20012;-77
2024/01/16 03:12:00;;;;;;;8.25;5.60;;;6.20;73.60;;;;;;6067776;23;20462;-78
2024/01/16 03:14:26;;;;;;;10.68;6.25;;;6.20;74.10;;;;;;6093421;23;20026;-77
2024/01/16 03:16:52;;;;;;;9.10;6.15;;;6.20;74.10;;;;;;6092290;23;20580;-77
2024/01/16 03:19:18;;;;;;;10.88;6.72;;;6.20;73.70;;;;;;6093757;23;20101;-76
2024/01/16 03:21:44;;;;;;;9.80;6.43;;;6.20;73.20;;;;;;6068615;23;20085;-77
2024/01/16 03:24:10;;;;;;;7.10;5.75;;;6.20;74.70;;;;;;6067994;23;20033;-78
2024/01/16 03:26:38;;;;;;;7.65;6.03;;;6.20;73.60;;;;;;6093025;23;20366;-77
2024/01/16 03:29:04;;;;;;;9.25;6.45;;;6.20;75.20;;;;;;6093648;23;20029;-78
2024/01/16 03:31:30;;;;;;;9.40;6.35;;;6.20;74.80;;;;;;6093486;23;20098;-78
2024/01/16 03:33:56;;;;;;;9.23;6.28;;;6.20;76.10;;;;;;6067936;23;20045;-77
2024/01/16 03:36:23;;;;;;;8.77;6.25;;;6.20;75.30;;;;;;6093169;23;20102;-78
2024/01/16 03:38:49;;;;;;;9.48;6.28;;;6.20;74.10;;;;;;6067567;23;20014;-78
2024/01/16 03:41:15;;;;;;;9.68;6.63;;;6.20;73.90;;;;;;6093020;23;20459;-78
2024/01/16 03:43:41;;;;;;;11.10;6.97;;;6.20;73.90;;;;;;6091735;23;20459;-79
2024/01/16 03:46:07;;;;;;;10.52;6.95;;;6.20;73.80;;;;;;6092172;23;20018;-78
2024/01/16 03:48:33;;;;;;;10.32;6.47;;;6.20;74.80;;;;;;6069072;23;20034;-80
2024/01/16 03:50:59;;;;;;;10.40;6.80;;;6.20;75.30;;;;;;6067410;23;20025;-79
2024/01/16 03:53:25;;;;;;;10.25;6.88;;;6.20;74.90;;;;;;6092853;23;20022;-79
2024/01/16 03:55:51;;;;;;;11.70;7.15;;;6.20;74.60;;;;;;6092072;23;20014;-78
2024/01/16 03:58:17;;;;;;;10.35;6.85;;;6.20;73.70;;;;;;6093103;23;20061;-78
2024/01/16 04:00:44;;;;;;;9.80;6.90;;;6.20;74.50;;;;;;6092418;23;20435;-78
2024/01/16 04:03:11;;;;;;;11.07;7.05;;;6.20;74.20;;;;;;6092898;23;20030;-80
2024/01/16 04:05:37;;;;;;;10.93;6.80;;;6.20;73.70;;;;;;6093416;23;20022;-78
2024/01/16 04:08:03;;;;;;;10.48;6.93;;;6.20;73.10;;;;;;6093733;23;20022;-78
2024/01/16 04:10:29;;;;;;;9.48;6.68;;;6.20;73.70;;;;;;6091598;23;20434;-79
2024/01/16 04:12:55;;;;;;;9.95;6.63;;;6.20;74.30;;;;;;6092937;23;20021;-80
2024/01/16 04:15:22;;;;;;;11.15;7.15;;;6.20;73.60;;;;;;6092365;23;20103;-78
2024/01/16 04:17:48;;;;;;;11.95;7.13;;;6.20;73.90;;;;;;6067532;23;20073;-80
2024/01/16 04:20:14;;;;;;;10.63;7.13;;;6.20;73.40;;;;;;6093304;23;20371;-81
2024/01/16 04:22:41;;;;;;;9.70;6.45;;;6.20;73.40;;;;;;6092639;23;20015;-80
2024/01/16 04:25:07;;;;;;;10.85;7.15;;;6.20;74.00;;;;;;6092580;23;20014;-80
2024/01/16 04:27:33;;;;;;;10.63;7.70;;;6.20;73.60;;;;;;6068495;23;20022;-80
2024/01/16 04:29:59;;;;;;;9.27;6.53;;;6.20;73.40;;;;;;6093014;23;20019;-81
2024/01/16 04:32:25;;;;;;;11.65;7.55;;;6.20;74.20;;;;;;6094364;23;20101;-83
2024/01/16 04:34:51;;;;;;;10.38;7.35;;;6.20;75.00;;;;;;6093168;23;20046;-85
2024/01/16 04:37:17;;;;;;;10.85;7.57;;;6.20;74.40;;;;;;6093739;23;20014;-81
2024/01/16 04:39:43;;;;;;;10.30;7.32;;;6.20;75.10;;;;;;6069094;23;20097;-80
2024/01/16 04:42:09;;;;;;;11.07;7.53;;;6.20;74.60;;;;;;6067761;23;20026;-81
2024/01/16 04:44:35;;;;;;;9.40;7.18;;;6.20;75.30;;;;;;6091378;23;20025;-81
2024/01/16 04:47:02;;;;;;;10.50;6.97;;;6.20;74.50;;;;;;6067607;23;20027;-81
2024/01/16 04:49:28;;;;;;;10.77;7.25;;;6.20;74.70;;;;;;6092885;23;20026;-82
2024/01/16 04:51:54;;;;;;;9.95;6.85;;;6.20;75.30;;;;;;6068837;23;20010;-86
2024/01/16 04:54:20;;;;;;;10.85;6.85;;;6.20;75.30;;;;;;6092364;23;20026;-82
2024/01/16 04:56:45;;;;;;;10.85;7.43;;;6.20;75.30;;;;;;6092134;23;20427;-81
2024/01/16 04:59:12;;;;;;;12.43;7.43;;;6.20;75.00;;;;;;6093324;23;20014;-81
2024/01/16 05:01:37;;;;;;;10.30;7.10;;;6.20;75.90;;;;;;6090717;23;20018;-82
2024/01/16 05:04:04;;;;;;;10.55;7.05;;;6.20;75.50;;;;;;6068866;23;20529;-82
2024/01/16 05:06:30;;;;;;;13.10;7.63;;;6.20;75.60;;;;;;6094113;23;20032;-85
2024/01/16 05:08:56;;;;;;;11.40;7.40;;;6.20;75.40;;;;;;6068363;23;20054;-82
2024/01/16 05:11:22;;;;;;;10.23;6.97;;;6.20;75.60;;;;;;6094102;23;20121;-82
2024/01/16 05:13:48;;;;;;;13.45;7.93;;;6.20;76.40;;;;;;6093920;23;20026;-82
2024/01/16 05:16:14;;;;;;;14.40;8.00;;;6.20;76.30;;;;;;6067387;23;20526;-81
2024/01/16 05:18:44;;;;;;;11.77;7.78;;;6.20;76.00;;;;;;6068827;23;20316;-82
2024/01/16 05:21:10;;;;;;;14.95;9.45;;;6.20;76.10;;;;;;6068271;23;20014;-82
2024/01/16 05:23:37;;;;;;;14.65;9.02;;;6.20;75.80;;;;;;6091857;23;20474;-81
2024/01/16 05:26:03;;;;;;;16.85;8.63;;;6.10;76.30;;;;;;6091831;23;20066;-83
2024/01/16 05:28:29;;;;;;;13.05;8.40;;;6.20;75.30;;;;;;6068324;23;20022;-82
2024/01/16 05:30:55;;;;;;;13.95;8.13;;;6.20;75.50;;;;;;6094795;23;20015;-82
2024/01/16 05:33:21;;;;;;;11.18;8.10;;;6.20;74.80;;;;;;6067862;23;20485;-81
2024/01/16 05:35:47;;;;;;;11.73;8.63;;;6.10;75.80;;;;;;6093383;23;20070;-81
2024/01/16 05:38:13;;;;;;;11.57;7.82;;;6.20;75.50;;;;;;6043845;23;20014;-83
2024/01/16 05:40:39;;;;;;;12.13;7.93;;;6.20;76.30;;;;;;6067936;23;20546;-82
2024/01/16 05:43:05;;;;;;;10.63;7.72;;;6.20;76.00;;;;;;6068255;23;20589;-82
2024/01/16 05:45:31;;;;;;;12.90;8.80;;;6.20;76.30;;;;;;6092785;23;20466;-81
2024/01/16 05:47:58;;;;;;;12.32;8.30;;;6.10;76.10;;;;;;6091574;23;20078;-87
2024/01/16 05:50:24;;;;;;;12.07;8.35;;;6.10;75.10;;;;;;6042312;23;20019;-82
2024/01/16 05:52:50;;;;;;;12.57;8.70;;;6.20;76.00;;;;;;6068153;23;20103;-82
2024/01/16 05:55:16;;;;;;;11.95;8.98;;;6.20;75.80;;;;;;6092352;23;20530;-83
2024/01/16 05:57:43;;;;;;;12.25;8.75;;;6.10;75.70;;;;;;6068184;23;20014;-83
2024/01/16 06:00:10;;;;;;;12.75;8.70;;;6.20;75.20;;;;;;6067497;23;20042;-80
2024/01/16 06:02:36;;;;;;;12.88;8.43;;;6.10;75.30;;;;;;6093039;23;20021;-81
2024/01/16 06:05:02;;;;;;;12.55;8.55;;;6.10;74.80;;;;;;6067651;23;20018;-81
2024/01/16 06:07:28;;;;;;;14.05;8.57;;;6.10;75.30;;;;;;6093175;23;20069;-79
2024/01/16 06:09:54;;;;;;;14.73;8.40;;;6.10;75.30;;;;;;6093101;23;20010;-80
2024/01/16 06:12:20;;;;;;;13.27;8.35;;;6.10;75.50;;;;;;6067648;23;20025;-80
2024/01/16 06:14:46;;;;;;;11.07;7.47;;;6.10;75.30;;;;;;6068735;23;20101;-80
2024/01/16 06:17:13;;;;;;;11.77;8.15;;;6.10;74.60;;;;;;6092431;23;20109;-81
2024/01/16 06:19:39;;;;;;;13.75;8.75;;;6.10;75.10;;;;;;6094519;23;20462;-80
2024/01/16 06:22:05;;;;;;;14.65;8.05;;;6.10;74.80;;;;;;6092077;23;20014;-79
2024/01/16 06:24:36;;;;;;;14.00;8.90;;;6.10;75.00;;;;;;6093657;23;20021;-79
2024/01/16 06:27:08;;;;;;;14.43;9.35;;;6.10;74.30;;;;;;6094181;23;20026;-79
2024/01/16 06:29:35;;;;;;;14.05;8.18;;;6.10;74.80;;;;;;6094565;23;20022;-79
2024/01/16 06:32:01;;;;;;;12.90;7.65;;;6.10;74.50;;;;;;6094209;23;20077;-81
2024/01/16 06:34:28;;;;;;;10.68;7.30;;;6.10;75.10;;;;;;6093737;23;20076;-78
2024/01/16 06:36:54;;;;;;;13.00;8.60;;;6.10;74.00;;;;;;6094627;23;20018;-78
2024/01/16 06:39:20;;;;;;;13.93;8.90;;;6.10;74.80;;;;;;6093066;23;20512;-79
2024/01/16 06:41:46;;;;;;;14.80;9.60;;;6.10;75.40;;;;;;6093764;23;20069;-80
2024/01/16 06:44:12;;;;;;;12.70;8.77;;;6.10;74.80;;;;;;6093416;23;20053;-85
2024/01/16 06:46:38;;;;;;;14.18;9.02;;;6.10;75.10;;;;;;6069654;23;20014;-78
2024/01/16 06:49:04;;;;;;;13.80;8.65;;;6.10;75.50;;;;;;6094069;23;20458;-79
2024/01/16 06:51:30;;;;;;;14.45;9.13;;;6.10;74.70;;;;;;6094718;23;20215;-80
2024/01/16 06:53:56;;;;;;;13.57;9.35;;;6.10;74.40;;;;;;6093900;23;20417;-80
2024/01/16 06:56:24;;;;;;;15.27;8.77;;;6.20;75.70;;;;;;6094260;23;20022;-78
2024/01/16 06:58:50;;;;;;;14.50;9.60;;;6.10;75.50;;;;;;6094527;23;20010;-84
2024/01/16 07:01:16;;;;;;;15.63;9.07;;;6.10;75.20;;;;;;6069157;23;20014;-80
2024/01/16 07:03:42;;;;;;;16.50;9.73;;;6.20;74.80;;;;;;6095417;23;20536;-81
2024/01/16 07:06:08;;;;;;;13.95;8.80;;;6.20;76.50;;;;;;6067965;23;20113;-81
2024/01/16 07:08:34;;;;;;;14.35;8.43;;;6.20;77.60;;;;;;6094361;23;20030;-81
2024/01/16 07:11:00;;;;;;;13.02;8.13;;;6.20;77.70;;;;;;6092332;23;20022;-80
2024/01/16 07:13:26;;;;;;;14.10;8.00;;;6.20;78.80;;;;;;6094182;23;20481;-81
2024/01/16 07:15:52;;;;;;;12.82;7.90;;;6.20;79.40;;;;;;6095435;23;20078;-82
2024/01/16 07:18:18;;;;;;;14.10;8.02;;;6.30;80.10;;;;;;6091846;23;20466;-79
2024/01/16 07:20:46;;;;;;;13.57;7.65;;;6.30;78.30;;;;;;6098112;23;20022;-85
2024/01/16 07:23:12;;;;;;;12.60;7.53;;;6.30;79.90;;;;;;6070729;23;20018;-84
2024/01/16 07:25:39;;;;;;;10.98;7.35;;;6.40;80.00;;;;;;6069856;23;20014;-80
2024/01/16 07:28:05;;;;;;;14.30;8.23;;;6.30;80.70;;;;;;6092928;23;20391;-79
2024/01/16 07:30:31;;;;;;;12.00;8.10;;;6.30;81.40;;;;;;6093379;23;20434;-78
2024/01/16 07:32:58;;;;;;;13.38;8.02;;;6.40;80.80;;;;;;6093436;23;20383;-77
2024/01/16 07:35:24;;;;;;;13.15;7.63;;;6.40;80.80;;;;;;6093494;23;20065;-87
2024/01/16 07:37:50;;;;;;;12.95;8.00;;;6.40;80.80;;;;;;6094309;23;20018;-83
2024/01/16 07:40:16;;;;;;;12.93;8.02;;;6.40;80.10;;;;;;6044711;23;20018;-82
2024/01/16 07:42:43;;;;;;;14.23;7.80;;;6.40;79.70;;;;;;6095038;23;20022;-83
2024/01/16 07:45:09;;;;;;;11.50;7.97;;;6.40;79.50;;;;;;6069208;23;20044;-83
2024/01/16 07:47:36;;;;;;;13.48;7.97;;;6.50;79.50;;;;;;6068731;23;20458;-83
2024/01/16 07:50:02;;;;;;;14.82;8.20;;;6.50;80.00;;;;;;6069153;23;20458;-82
2024/01/16 07:52:28;;;;;;;13.60;8.55;;;6.50;80.00;;;;;;6069622;23;20412;-82
2024/01/16 07:54:55;;;;;;;15.05;8.55;;;6.50;79.90;;;;;;6044981;23;20020;-82
2024/01/16 07:57:21;;;;;;;12.68;8.57;;;6.50;79.60;;;;;;6069218;23;20026;-84
2024/01/16 07:59:47;;;;;;;12.18;8.13;;;6.50;80.10;;;;;;6069158;23;20015;-85
2024/01/16 08:02:13;;;;;;;11.43;7.78;;;6.50;78.80;;;;;;6094684;23;20022;-82
2024/01/16 08:04:39;;;;;;;11.50;7.70;;;6.60;79.10;;;;;;6069475;23;20094;-83
2024/01/16 08:07:05;;;;;;;10.65;7.55;;;6.50;78.80;;;;;;6094636;23;20015;-83
2024/01/16 08:09:31;;;;;;;12.15;8.23;;;6.60;79.10;;;;;;6093762;23;20045;-84
2024/01/16 08:11:57;;;;;;;11.65;8.05;;;6.50;79.10;;;;;;6093334;23;20018;-84
2024/01/16 08:14:23;;;;;;;11.75;8.57;;;6.60;79.30;;;;;;6092797;23;20027;-84
2024/01/16 08:16:49;;;;;;;11.82;8.27;;;6.60;78.70;;;;;;6093552;23;20034;-84
2024/01/16 08:19:15;;;;;;;12.50;8.40;;;6.60;79.20;;;;;;6092616;23;20006;-85
2024/01/16 08:21:41;;;;;;;12.02;8.18;;;6.60;78.80;;;;;;6095193;23;20018;-84
2024/01/16 08:24:07;;;;;;;11.82;8.63;;;6.60;78.80;;;;;;6069037;23;20073;-85
2024/01/16 08:26:33;;;;;;;12.93;8.73;;;6.60;78.20;;;;;;6092545;23;20110;-83
2024/01/16 08:29:18;;;;;;;17.08;9.15;;;6.70;78.40;;;;;;6093410;23;20101;-84
2024/01/16 08:31:44;;;;;;;12.20;8.23;;;6.60;78.20;;;;;;6092878;23;20018;-84
2024/01/16 08:34:10;;;;;;;11.35;8.35;;;6.60;77.70;;;;;;6044894;23;20093;-84
2024/01/16 08:36:37;;;;;;;15.80;9.05;;;6.70;77.70;;;;;;6068797;23;20006;-82
2024/01/16 08:39:03;;;;;;;12.98;8.93;;;6.70;78.00;;;;;;6093736;23;20046;-83
2024/01/16 08:41:29;;;;;;;11.63;7.82;;;6.70;78.00;;;;;;6068278;23;20019;-83
2024/01/16 08:43:56;;;;;;;12.02;7.97;;;6.70;78.00;;;;;;6092566;23;20025;-82
2024/01/16 08:46:22;;;;;;;11.50;7.70;;;6.70;78.10;;;;;;6094229;23;20580;-81
2024/01/16 08:48:48;;;;;;;11.25;7.43;;;6.70;78.20;;;;;;6068722;23;20018;-81
2024/01/16 08:51:14;;;;;;;10.75;7.15;;;6.70;78.40;;;;;;6093033;23;20366;-81
2024/01/16 08:53:41;;;;;;;11.10;7.68;;;6.70;78.00;;;;;;6068070;23;20026;-81
2024/01/16 08:56:08;;;;;;;13.68;8.50;;;6.70;77.60;;;;;;6093476;23;20014;-82
2024/01/16 08:58:37;;;;;;;12.10;8.25;;;6.80;77.80;;;;;;6067249;23;20014;-83
2024/01/16 09:01:05;;;;;;;14.18;8.35;;;6.80;77.60;;;;;;6068658;23;20017;-84
2024/01/16 09:03:32;;;;;;;12.60;8.50;;;6.80;77.40;;;;;;6068192;23;20109;-81
2024/01/16 09:05:58;;;;;;;10.77;7.70;;;6.80;77.40;;;;;;6091304;23;20042;-81
2024/01/16 09:08:26;;;;;;;11.02;7.85;;;6.80;77.50;;;;;;6067823;23;20018;-81
2024/01/16 09:10:53;;;;;;;11.15;8.07;;;6.80;77.30;;;;;;6093117;23;20030;-82
2024/01/16 09:13:21;;;;;;;12.73;7.20;;;6.80;77.30;;;;;;6092813;23;20334;-81
2024/01/16 09:15:49;;;;;;;12.82;7.93;;;6.90;77.70;;;;;;6094215;23;20030;-83
2024/01/16 09:18:16;;;;;;;11.80;7.30;;;6.90;77.40;;;;;;6093796;23;20027;-85
2024/01/16 09:20:43;;;;;;;10.55;6.97;;;6.90;78.00;;;;;;6067488;23;20050;-84
2024/01/16 09:23:09;;;;;;;10.57;7.53;;;6.90;77.50;;;;;;6066423;23;20014;-84
2024/01/16 09:25:35;;;;;;;10.52;7.50;;;6.90;77.90;;;;;;6073673;23;20019;-82
2024/01/16 09:28:02;;;;;;;8.85;6.80;;;6.90;77.20;;;;;;6097076;23;20011;-82
2024/01/16 09:30:28;;;;;;;10.23;6.93;;;6.90;76.70;;;;;;6094214;23;20030;-82
2024/01/16 09:32:54;;;;;;;9.35;7.05;;;6.90;77.60;;;;;;6093276;23;20077;-82
2024/01/16 09:35:21;;;;;;;10.63;7.43;;;6.90;76.90;;;;;;6092063;23;20474;-81
2024/01/16 09:37:47;;;;;;;9.32;6.57;;;7.00;77.40;;;;;;6092071;23;20034;-82
2024/01/16 09:40:14;;;;;;;9.05;6.35;;;6.90;77.90;;;;;;6092767;23;20050;-82
2024/01/16 09:42:43;;;;;;;8.07;6.22;;;7.00;77.40;;;;;;6067680;23;20018;-83
2024/01/16 09:45:10;;;;;;;9.52;6.68;;;7.00;77.10;;;;;;6093091;23;20022;-82
2024/01/16 09:47:38;;;;;;;8.27;6.13;;;7.00;77.30;;;;;;6069363;23;20471;-82
2024/01/16 09:50:04;;;;;;;10.10;6.28;;;7.00;76.70;;;;;;6067578;23;20541;-84
2024/01/16 09:52:31;;;;;;;8.88;6.15;;;7.00;77.40;;;;;;6070090;23;20014;-83
2024/01/16 09:54:57;;;;;;;10.07;6.43;;;7.00;76.80;;;;;;6069388;23;20484;-84
2024/01/16 09:57:27;;;;;;;10.60;6.65;;;7.00;76.60;;;;;;6093406;23;20022;-82
2024/01/16 09:59:54;;;;;;;9.15;5.82;;;7.10;76.20;;;;;;6093076;23;20371;-81
2024/01/16 10:02:23;;;;;;;7.78;5.72;;;7.10;76.40;;;;;;6094686;23;20354;-85
2024/01/16 10:04:50;;;;;;;8.15;6.15;;;7.10;76.50;;;;;;6069279;23;20389;-86
2024/01/16 10:07:16;;;;;;;9.20;6.60;;;7.10;76.30;;;;;;6092939;23;20439;-84
2024/01/16 10:09:43;;;;;;;9.82;6.70;;;7.20;76.70;;;;;;6045755;23;20034;-84
2024/01/16 10:12:10;;;;;;;7.85;5.97;;;7.10;76.70;;;;;;6093147;23;20571;-85
2024/01/16 10:14:38;;;;;;;9.52;6.20;;;7.20;76.80;;;;;;6092812;23;20030;-83
2024/01/16 10:17:05;;;;;;;8.27;6.07;;;7.20;77.00;;;;;;6069454;23;20014;-82
2024/01/16 10:19:32;;;;;;;7.70;5.50;;;7.20;76.80;;;;;;6046091;23;20017;-85
2024/01/16 10:22:06;;;;;;;8.23;5.85;;;7.20;76.80;;;;;;6045255;23;20015;-84
2024/01/16 10:24:35;;;;;;;9.25;6.35;;;7.20;76.80;;;;;;6063940;23;20061;-84
2024/01/16 10:27:06;;;;;;;8.27;5.78;;;7.20;76.80;;;;;;6093053;23;20022;-85
2024/01/16 10:29:32;;;;;;;7.97;5.95;;;7.30;76.90;;;;;;6068395;23;20125;-85
2024/01/16 10:31:59;;;;;;;8.52;5.85;;;7.20;77.00;;;;;;6068657;23;20018;-84
2024/01/16 10:34:25;;;;;;;8.52;5.72;;;7.30;77.00;;;;;;6069256;23;20037;-85
2024/01/16 10:37:00;;;;;;;10.07;6.68;;;7.20;77.00;;;;;;6069895;23;20007;-83
2024/01/16 10:39:26;;;;;;;10.35;6.13;;;7.30;76.30;;;;;;6069933;23;20029;-85
2024/01/16 10:41:57;;;;;;;8.52;6.10;;;7.30;76.80;;;;;;6069025;23;20021;-80
2024/01/16 10:44:23;;;;;;;8.98;6.20;;;7.30;76.60;;;;;;6068689;23;20027;-84
2024/01/16 10:46:49;;;;;;;9.43;5.53;;;7.30;76.50;;;;;;6092593;23;20022;-85
2024/01/16 10:49:15;;;;;;;8.43;5.82;;;7.20;76.60;;;;;;6092750;23;20362;-83
2024/01/16 10:51:48;;;;;;;7.80;5.47;;;7.30;76.80;;;;;;6069159;23;20065;-82
2024/01/16 10:54:15;;;;;;;8.38;5.82;;;7.30;76.60;;;;;;6093535;23;20037;-84
2024/01/16 10:56:48;;;;;;;8.80;6.20;;;7.30;76.60;;;;;;6044386;23;20466;-83
2024/01/16 10:59:39;;;;;;;9.52;5.97;;;7.30;76.90;;;;;;6068155;23;20042;-84
2024/01/16 11:02:10;;;;;;;9.15;6.38;;;7.30;77.10;;;;;;6068668;23;20022;-84
2024/01/16 11:04:37;;;;;;;10.43;6.80;;;7.40;77.40;;;;;;6068172;23;20195;-83
2024/01/16 11:07:05;;;;;;;9.75;6.68;;;7.40;77.60;;;;;;6093098;23;20010;-84
2024/01/16 11:09:32;;;;;;;9.88;6.60;;;7.30;77.20;;;;;;6092376;23;20014;-83
2024/01/16 11:11:59;;;;;;;9.88;7.15;;;7.40;77.30;;;;;;6068511;23;20557;-83
2024/01/16 11:14:26;;;;;;;10.40;6.28;;;7.40;77.50;;;;;;6094049;23;20022;-84
2024/01/16 11:16:55;;;;;;;8.82;6.43;;;7.40;77.10;;;;;;6068532;23;20082;-85
2024/01/16 11:19:21;;;;;;;9.98;6.40;;;7.40;77.20;;;;;;6092171;23;20018;-85
2024/01/16 11:21:49;;;;;;;9.40;6.35;;;7.40;77.40;;;;;;6093250;23;20003;-84
2024/01/16 11:24:15;;;;;;;8.40;6.10;;;7.40;77.20;;;;;;6092382;23;20522;-84
2024/01/16 11:26:41;;;;;;;11.77;6.50;;;7.40;76.90;;;;;;6068709;23;20023;-85
2024/01/16 11:29:26;;;;;;;9.63;6.78;;;7.40;77.90;;;;;;6068315;23;20056;-85
2024/01/16 11:31:52;;;;;;;10.98;7.07;;;7.40;78.50;;;;;;6093392;23;20014;-82
2024/01/16 11:34:51;;;;;;;10.65;6.80;;;7.40;77.80;;;;;;6094489;23;20010;-83
2024/01/16 11:37:29;;;;;;;8.95;6.47;;;7.40;77.20;;;;;;6070753;23;20010;-83
2024/01/16 11:40:17;;;;;;;9.48;6.55;;;7.40;77.50;;;;;;6068629;23;20053;-84
2024/01/16 11:42:44;;;;;;;9.63;6.40;;;7.40;77.30;;;;;;6067936;23;20015;-80
2024/01/16 11:45:31;;;;;;;9.25;7.15;;;7.40;77.30;;;;;;6093638;23;20450;-80
2024/01/16 11:48:11;;;;;;;10.10;6.60;;;7.40;77.80;;;;;;6093160;23;20418;-80
2024/01/16 11:50:38;;;;;;;9.60;6.72;;;7.40;77.90;;;;;;6093250;23;20760;-79
2024/01/16 11:53:04;;;;;;;10.07;6.60;;;7.40;77.90;;;;;;6093529;23;20366;-80
2024/01/16 11:55:32;;;;;;;9.23;6.22;;;7.40;77.70;;;;;;6093260;23;20049;-79
2024/01/16 11:58:24;;;;;;;11.15;7.35;;;7.40;78.20;;;;;;6092216;23;20014;-79
2024/01/16 12:00:53;;;;;;;13.95;7.65;;;7.40;78.50;;;;;;6093740;23;20101;-81
2024/01/16 12:03:22;;;;;;;11.70;7.80;;;7.40;78.70;;;;;;6089989;23;20022;-80
2024/01/16 12:05:58;;;;;;;11.30;7.82;;;7.40;78.90;;;;;;6092708;23;20105;-78
2024/01/16 12:08:24;;;;;;;12.18;7.75;;;7.40;79.00;;;;;;6093322;23;20490;-82
2024/01/16 12:10:50;;;;;;;11.88;7.03;;;7.50;79.30;;;;;;6091423;23;20049;-78
2024/01/16 12:13:16;;;;;;;10.13;7.38;;;7.50;79.60;;;;;;6091352;23;20048;-78
2024/01/16 12:15:43;;;;;;;12.20;8.27;;;7.50;79.10;;;;;;6093455;23;20073;-79
2024/01/16 12:18:09;;;;;;;14.35;7.82;;;7.40;79.40;;;;;;6093197;23;20511;-79
2024/01/16 12:20:37;;;;;;;11.80;7.97;;;7.50;79.70;;;;;;6091808;23;20443;-80
2024/01/16 12:23:07;;;;;;;12.55;8.07;;;7.40;79.40;;;;;;6091648;23;20042;-79
2024/01/16 12:25:34;;;;;;;12.85;8.45;;;7.40;80.10;;;;;;6092049;23;20097;-80
2024/01/16 12:28:02;;;;;;;12.20;7.95;;;7.40;80.60;;;;;;6093772;23;20014;-79
2024/01/16 12:30:32;;;;;;;11.63;7.25;;;7.40;80.40;;;;;;6092927;23;20458;-82
2024/01/16 12:33:09;;;;;;;11.32;7.50;;;7.40;80.50;;;;;;6067189;23;20098;-83
2024/01/16 12:35:45;;;;;;;11.63;7.65;;;7.40;80.40;;;;;;6066069;23;20030;-83
2024/01/16 12:38:12;;;;;;;12.95;7.55;;;7.40;80.80;;;;;;6066005;23;20097;-83
2024/01/16 12:40:47;;;;;;;12.30;8.52;;;7.40;80.40;;;;;;6044352;23;20403;-85
2024/01/16 12:43:13;;;;;;;12.00;7.63;;;7.40;80.50;;;;;;6066123;23;20018;-82
2024/01/16 12:45:39;;;;;;;10.85;7.60;;;7.40;80.50;;;;;;6067370;23;20037;-85
2024/01/16 12:48:06;;;;;;;11.48;7.32;;;7.40;80.20;;;;;;6090076;23;20026;-84
2024/01/16 12:50:32;;;;;;;10.63;7.25;;;7.40;80.40;;;;;;6066390;23;20167;-80